Time;durP1;ratioP1;P1;durP2;ratioP2;P2;SDS_P1;SDS_P2;PMS_P1;PMS_P2;Temp;Humidity;BMP_temperature;BMP_pressure;BME280_temperature;BME280_humidity;BME280_pressure;Samples;Min_cycle;Max_cycle;Signal;HPM_P1;HPM_P2
2023/01/23 12:05:10;;;;;;;10.50;3.90;;;3.10;99.90;;;;;;10495372;27;20675;-66
2023/01/23 12:11:11;;;;;;;11.15;4.90;;;6.10;99.90;;;;;;10478786;28;20320;-67
2023/01/23 12:16:39;;;;;;;5.82;3.53;;;6.80;99.90;;;;;;10482952;28;20028;-66
2023/01/23 12:22:23;;;;;;;5.30;3.35;;;5.50;99.90;;;;;;10494240;28;20040;-67
2023/01/23 12:28:06;;;;;;;8.10;4.68;;;6.70;99.90;;;;;;10520262;22;20513;-67
2023/01/23 12:33:58;;;;;;;6.82;4.30;;;5.30;99.90;;;;;;10543808;28;20031;-64
2023/01/23 12:39:29;;;;;;;7.55;4.07;;;4.90;99.90;;;;;;10541267;28;20020;-63
2023/01/23 12:45:04;;;;;;;9.48;3.80;;;5.20;99.90;;;;;;10524901;28;20040;-64
2023/01/23 12:50:41;;;;;;;8.80;3.70;;;5.50;99.90;;;;;;10534538;28;20028;-64
2023/01/23 12:56:24;;;;;;;9.85;4.30;;;5.70;99.90;;;;;;10548109;28;20055;-64
2023/01/23 13:02:22;;;;;;;7.40;3.80;;;5.90;99.90;;;;;;10539005;28;20075;-62
2023/01/23 13:08:03;;;;;;;5.97;3.47;;;6.00;99.90;;;;;;10528474;28;20032;-61
2023/01/23 13:13:26;;;;;;;6.00;3.08;;;6.80;99.90;;;;;;10536853;28;20055;-61
2023/01/23 13:30:25;;;;;;;5.63;3.03;;;6.30;99.90;;;;;;10525282;28;20036;-62
2023/01/23 13:35:51;;;;;;;6.00;3.25;;;5.50;99.90;;;;;;10528392;28;20024;-63
2023/01/23 13:41:13;;;;;;;4.82;3.15;;;6.50;99.90;;;;;;10519589;28;20032;-62
2023/01/23 13:46:32;;;;;;;6.00;3.10;;;6.70;99.90;;;;;;10513229;28;20242;-62
2023/01/23 13:51:57;;;;;;;8.00;3.22;;;7.50;99.90;;;;;;10525642;28;20028;-63
2023/01/23 13:57:18;;;;;;;4.32;2.85;;;6.60;99.90;;;;;;10507786;28;20625;-62
2023/01/23 14:08:22;;;;;;;6.18;2.88;;;6.60;99.90;;;;;;10526037;28;20028;-61
2023/01/23 14:13:50;;;;;;;5.85;3.10;;;6.60;99.90;;;;;;10514276;28;20020;-63
2023/01/23 14:19:56;;;;;;;4.38;2.40;;;6.60;99.90;;;;;;10520237;28;20012;-61
2023/01/23 14:25:26;;;;;;;5.72;3.00;;;6.70;99.90;;;;;;10488525;28;20048;-62
2023/01/23 14:31:06;;;;;;;4.82;3.10;;;6.70;99.90;;;;;;10504221;28;20106;-63
2023/01/23 14:36:26;;;;;;;6.82;2.50;;;6.70;99.90;;;;;;10504082;28;20028;-63
2023/01/23 14:41:47;;;;;;;9.23;3.65;;;6.70;99.90;;;;;;10501892;28;20048;-64
2023/01/23 14:47:21;;;;;;;5.45;2.47;;;6.70;99.90;;;;;;10498591;28;20038;-62
2023/01/23 14:52:44;;;;;;;4.35;2.60;;;6.70;99.90;;;;;;10507641;28;20040;-61
2023/01/23 14:58:29;;;;;;;5.43;2.53;;;6.80;99.90;;;;;;10457384;22;20034;-63
2023/01/23 15:04:18;;;;;;;5.30;2.40;;;6.80;99.90;;;;;;10353148;28;20033;-63
2023/01/23 15:09:41;;;;;;;4.35;2.63;;;7.80;99.90;;;;;;10357536;28;20319;-62
2023/01/23 15:15:01;;;;;;;6.22;2.65;;;7.00;99.90;;;;;;10357891;28;20026;-61
2023/01/23 15:20:39;;;;;;;5.65;2.55;;;7.50;99.90;;;;;;10356424;28;20038;-63
2023/01/23 15:26:31;;;;;;;5.50;2.67;;;6.90;99.90;;;;;;10356764;28;20041;-62
2023/01/23 15:31:55;;;;;;;3.75;2.05;;;7.80;99.90;;;;;;10356819;28;20403;-61
2023/01/23 15:37:14;;;;;;;5.95;2.65;;;7.90;99.90;;;;;;10353870;28;20255;-62
2023/01/23 15:42:33;;;;;;;;;;;7.80;99.90;;;;;;10352485;28;20026;-62
2023/01/23 15:47:53;;;;;;;3.85;2.65;;;6.70;99.90;;;;;;10339929;28;20353;-62
2023/01/23 15:53:33;;;;;;;5.25;2.50;;;6.70;99.90;;;;;;10355351;28;20498;-62
2023/01/23 15:58:53;;;;;;;5.22;2.90;;;7.40;99.90;;;;;;10354819;28;20034;-64
2023/01/23 16:04:16;;;;;;;5.00;2.55;;;6.80;99.90;;;;;;10354991;28;20542;-63
2023/01/23 16:09:42;;;;;;;5.50;2.70;;;6.80;99.90;;;;;;10353901;28;20458;-63
2023/01/23 16:15:02;;;;;;;4.78;2.30;;;7.90;99.90;;;;;;10350186;28;20034;-63
2023/01/23 16:20:34;;;;;;;5.72;2.95;;;6.80;99.90;;;;;;10353468;28;20042;-63
2023/01/23 16:25:56;;;;;;;5.57;2.88;;;6.80;99.90;;;;;;10350167;28;20038;-67
2023/01/23 16:31:19;;;;;;;10.43;4.18;;;6.80;99.90;;;;;;10355784;28;20502;-68
2023/01/23 16:36:38;;;;;;;6.50;3.53;;;6.80;99.90;;;;;;10355478;28;20022;-65
2023/01/23 16:41:58;;;;;;;6.90;3.40;;;7.70;99.90;;;;;;10354846;28;20474;-63
2023/01/23 16:47:17;;;;;;;8.35;3.40;;;7.80;99.90;;;;;;10354396;28;20053;-63
2023/01/23 16:52:43;;;;;;;10.88;4.50;;;6.70;99.90;;;;;;10361436;28;20037;-63
2023/01/23 16:58:05;;;;;;;8.77;4.05;;;7.30;99.90;;;;;;10360597;28;20041;-63
2023/01/23 17:03:28;;;;;;;7.28;4.22;;;6.70;99.90;;;;;;10357216;28;20046;-63
2023/01/23 17:08:49;;;;;;;8.18;3.88;;;7.90;99.90;;;;;;10360888;28;20034;-62
2023/01/23 17:14:38;;;;;;;9.55;4.65;;;6.60;99.90;;;;;;10360982;28;20042;-64
2023/01/23 17:20:00;;;;;;;7.78;3.60;;;6.70;99.90;;;;;;10360148;28;20033;-62
2023/01/23 17:25:23;;;;;;;5.30;3.65;;;6.70;99.90;;;;;;10361153;28;20029;-63
2023/01/23 17:30:54;;;;;;;7.97;3.88;;;7.00;99.90;;;;;;10360032;28;20034;-63
2023/01/23 17:36:38;;;;;;;10.02;4.40;;;7.70;99.90;;;;;;10342467;28;20026;-63
2023/01/23 17:42:00;;;;;;;8.82;4.18;;;6.60;99.90;;;;;;10360146;28;20046;-62
2023/01/23 17:47:22;;;;;;;10.90;4.40;;;7.60;99.90;;;;;;10360756;28;20034;-63
2023/01/23 17:52:41;;;;;;;7.75;4.13;;;7.10;99.90;;;;;;10357487;28;20053;-63
2023/01/23 17:58:02;;;;;;;7.18;3.63;;;6.80;99.90;;;;;;10359532;28;20065;-63
2023/01/23 18:03:23;;;;;;;8.13;3.55;;;6.80;99.90;;;;;;10354756;28;20263;-63
2023/01/23 18:08:46;;;;;;;10.65;4.07;;;7.30;99.90;;;;;;10344035;28;20443;-63
2023/01/23 18:14:26;;;;;;;8.98;3.67;;;6.90;99.90;;;;;;10357913;28;20034;-63
2023/01/23 18:19:46;;;;;;;8.80;3.42;;;6.90;99.90;;;;;;10360435;28;20340;-63
2023/01/23 18:25:17;;;;;;;7.53;3.70;;;6.90;99.90;;;;;;10636300;22;20045;-65
2023/01/23 18:31:24;;;;;;;7.22;3.33;;;6.90;99.90;;;;;;10411490;22;20049;-62
2023/01/23 18:37:27;;;;;;;6.30;3.75;;;6.80;99.90;;;;;;10363562;28;20037;-62
2023/01/23 18:43:39;;;;;;;7.57;3.45;;;6.80;99.90;;;;;;10219298;28;20520;-64
2023/01/23 18:49:25;;;;;;;8.52;3.70;;;6.70;99.90;;;;;;10306602;28;20037;-64
2023/01/23 18:55:28;;;;;;;6.97;3.58;;;6.70;99.90;;;;;;10363503;28;20026;-63
2023/01/23 19:01:18;;;;;;;6.78;3.33;;;7.30;99.90;;;;;;10379545;28;20034;-63
2023/01/23 19:06:40;;;;;;;7.20;3.50;;;6.70;99.90;;;;;;10380193;28;20064;-62
2023/01/23 19:25:19;;;;;;;8.20;3.20;;;6.70;99.90;;;;;;10354118;28;20046;-63
2023/01/23 19:30:41;;;;;;;6.85;3.70;;;6.70;99.90;;;;;;10382972;28;20336;-64
2023/01/23 19:36:00;;;;;;;6.28;3.33;;;6.70;99.90;;;;;;10377139;28;20042;-63
2023/01/23 19:41:23;;;;;;;6.72;3.42;;;6.70;99.90;;;;;;10379090;28;20489;-63
2023/01/23 19:47:20;;;;;;;5.28;3.28;;;6.70;99.90;;;;;;10389524;28;20026;-63
2023/01/23 19:52:59;;;;;;;7.20;3.67;;;6.90;99.90;;;;;;10401629;28;20030;-64
2023/01/23 19:58:55;;;;;;;6.72;3.60;;;6.90;99.90;;;;;;10376288;28;20025;-63
2023/01/23 20:04:18;;;;;;;7.53;3.80;;;6.70;99.90;;;;;;10499564;22;20042;-64
2023/01/23 20:09:37;;;;;;;6.15;3.67;;;6.60;99.90;;;;;;10396126;28;21468;-64
2023/01/23 20:14:57;;;;;;;5.85;3.35;;;6.60;99.90;;;;;;10399430;28;20253;-64
2023/01/23 20:20:17;;;;;;;6.10;3.42;;;6.70;99.90;;;;;;10395910;28;20034;-63
2023/01/23 20:25:36;;;;;;;6.50;3.50;;;7.10;99.90;;;;;;10384035;28;20025;-64
2023/01/23 20:30:56;;;;;;;6.55;3.30;;;6.60;99.90;;;;;;10499841;22;20045;-63
2023/01/23 20:36:16;;;;;;;6.85;3.20;;;6.60;99.90;;;;;;10437803;28;20033;-63
2023/01/23 20:41:35;;;;;;;5.15;2.85;;;6.60;99.90;;;;;;10437808;28;20041;-63
2023/01/23 20:46:54;;;;;;;7.32;3.22;;;6.60;99.90;;;;;;10437407;28;20398;-63
2023/01/23 21:03:50;;;;;;;7.07;3.70;;;6.80;99.90;;;;;;10590101;22;20056;-63
2023/01/23 21:09:10;;;;;;;6.85;3.33;;;6.60;99.90;;;;;;10466561;28;20024;-63
2023/01/23 21:14:33;;;;;;;;;;;6.60;99.90;;;;;;10478941;28;20032;-63
2023/01/23 21:19:52;;;;;;;7.47;3.33;;;6.60;99.90;;;;;;10482245;23;19920;-63
2023/01/23 21:25:45;;;;;;;6.45;3.80;;;6.60;99.90;;;;;;10469684;28;20036;-64
2023/01/23 21:31:33;;;;;;;5.78;3.72;;;6.60;99.90;;;;;;10453237;28;20428;-64
2023/01/23 21:36:52;;;;;;;6.20;3.85;;;7.10;99.90;;;;;;10503161;22;20053;-64
2023/01/23 21:42:11;;;;;;;;;;;7.60;99.90;;;;;;10434865;28;20450;-61
2023/01/23 21:47:30;;;;;;;;;;;6.60;99.90;;;;;;10430721;28;19905;-64
2023/01/23 21:52:50;;;;;;;7.47;3.95;;;6.60;99.90;;;;;;10430579;28;20201;-63
2023/01/23 21:58:10;;;;;;;6.13;3.35;;;6.60;99.90;;;;;;10411499;28;20142;-64
2023/01/23 22:03:36;;;;;;;6.55;3.47;;;7.40;99.90;;;;;;10413973;28;20033;-64
2023/01/23 22:08:56;;;;;;;7.20;3.60;;;7.10;99.90;;;;;;10426516;28;20029;-61
2023/01/23 22:14:16;;;;;;;6.95;3.88;;;6.60;99.90;;;;;;10431845;28;20067;-62
2023/01/23 22:19:36;;;;;;;6.57;3.53;;;6.60;99.90;;;;;;10428475;28;20053;-62
2023/01/23 22:24:55;;;;;;;7.03;3.95;;;7.00;99.90;;;;;;10429471;28;20468;-63
2023/01/23 22:30:14;;;;;;;7.22;3.72;;;6.60;99.90;;;;;;10430353;28;20026;-62
2023/01/23 22:35:40;;;;;;;7.40;3.78;;;6.60;99.90;;;;;;10427556;28;20048;-62
2023/01/23 22:41:01;;;;;;;6.10;3.50;;;6.60;99.90;;;;;;10428952;28;20112;-63
2023/01/23 22:46:22;;;;;;;6.88;3.85;;;6.60;99.90;;;;;;10430235;28;20025;-61
2023/01/23 22:51:41;;;;;;;7.03;3.72;;;6.50;99.90;;;;;;10410394;28;20032;-63
2023/01/23 22:57:01;;;;;;;6.38;3.13;;;6.60;99.90;;;;;;10424425;28;20029;-65
2023/01/23 23:02:20;;;;;;;;;;;6.60;99.90;;;;;;10423676;28;20049;-65
2023/01/23 23:07:39;;;;;;;;;;;6.50;99.90;;;;;;10424056;28;19917;-63
2023/01/23 23:12:59;;;;;;;5.88;3.30;;;7.60;99.90;;;;;;10427980;28;19992;-61
2023/01/23 23:18:18;;;;;;;5.45;3.33;;;6.60;99.90;;;;;;10433777;28;20041;-63
2023/01/23 23:23:38;;;;;;;7.78;3.60;;;6.60;99.90;;;;;;10430265;28;20029;-61
2023/01/23 23:28:59;;;;;;;7.90;4.22;;;6.60;99.90;;;;;;10434183;28;20021;-60
2023/01/23 23:34:18;;;;;;;7.20;3.92;;;6.60;99.90;;;;;;10425973;28;20045;-62
2023/01/23 23:39:38;;;;;;;7.63;3.70;;;6.60;99.90;;;;;;10422551;28;20431;-61
2023/01/23 23:45:00;;;;;;;;;;;7.20;99.90;;;;;;10424895;28;20037;-62
2023/01/23 23:50:19;;;;;;;6.90;3.60;;;6.40;99.90;;;;;;10434523;28;19905;-60
2023/01/23 23:55:42;;;;;;;6.65;3.75;;;6.60;99.90;;;;;;10418629;28;20049;-60
